Time;durP1;ratioP1;P1;durP2;ratioP2;P2;SDS_P1;SDS_P2;PMS_P1;PMS_P2;Temp;Humidity;BMP_temperature;BMP_pressure;BME280_temperature;BME280_humidity;BME280_pressure;Samples;Min_cycle;Max_cycle;Signal;HPM_P1;HPM_P2
2022/08/14 00:00:48;;;;;;;9.02;4.20;;;23.60;97.70;;;;;;5027177;28;25062;-70
2022/08/14 00:03:22;;;;;;;6.68;4.20;;;23.60;98.80;;;;;;5026194;28;25054;-71
2022/08/14 00:05:48;;;;;;;5.93;4.47;;;23.60;98.60;;;;;;5042418;28;25146;-71
2022/08/14 00:08:14;;;;;;;6.68;4.85;;;23.50;98.40;;;;;;5024163;28;25062;-71
2022/08/14 00:10:41;;;;;;;6.30;4.60;;;23.40;98.20;;;;;;5037821;28;25052;-70
2022/08/14 00:13:07;;;;;;;7.28;4.43;;;23.40;99.60;;;;;;5028773;28;25123;-71
2022/08/14 00:15:37;;;;;;;7.57;5.03;;;23.40;99.30;;;;;;5027085;28;25094;-72
2022/08/14 00:18:03;;;;;;;7.60;4.15;;;23.40;99.90;;;;;;5021994;28;25111;-71
2022/08/14 00:20:32;;;;;;;9.35;4.50;;;23.40;99.20;;;;;;5024262;28;25067;-71
2022/08/14 00:22:59;;;;;;;10.88;5.07;;;23.30;99.90;;;;;;5022482;28;25068;-72
2022/08/14 00:25:26;;;;;;;8.55;5.15;;;23.10;99.90;;;;;;5024466;28;25114;-71
2022/08/14 00:27:52;;;;;;;6.05;4.78;;;23.10;99.90;;;;;;5025689;28;25059;-70
2022/08/14 00:30:18;;;;;;;9.63;5.00;;;23.10;99.90;;;;;;5025154;28;25126;-71
2022/08/14 00:32:44;;;;;;;10.07;5.40;;;23.20;99.90;;;;;;5019575;28;25105;-71
2022/08/14 00:35:11;;;;;;;10.48;5.32;;;23.10;99.90;;;;;;5025623;28;25090;-70
2022/08/14 00:37:43;;;;;;;8.15;4.63;;;22.90;99.90;;;;;;5022940;28;25071;-72
2022/08/14 00:40:09;;;;;;;;;;;23.00;99.90;;;;;;5029701;28;25122;-71
2022/08/14 00:42:35;;;;;;;9.63;5.65;;;23.00;99.90;;;;;;5049500;28;24103;-72
2022/08/14 00:45:01;;;;;;;6.50;4.45;;;23.00;99.90;;;;;;5049048;28;25054;-69
2022/08/14 00:47:27;;;;;;;7.40;4.82;;;23.10;99.90;;;;;;5042408;28;25069;-72
2022/08/14 00:49:57;;;;;;;6.57;5.15;;;23.10;99.90;;;;;;5043967;28;25091;-70
2022/08/14 00:52:24;;;;;;;8.23;5.15;;;23.00;99.90;;;;;;5041054;28;25107;-70
2022/08/14 00:54:53;;;;;;;12.90;5.85;;;22.90;99.90;;;;;;5031617;28;25056;-71
2022/08/14 00:57:24;;;;;;;7.35;5.88;;;22.80;99.90;;;;;;5023021;28;25060;-71
2022/08/14 00:59:50;;;;;;;5.80;5.20;;;22.70;99.90;;;;;;5034144;28;25083;-72
2022/08/14 01:02:19;;;;;;;10.23;5.60;;;22.50;99.90;;;;;;5031352;28;25129;-72
2022/08/14 01:04:45;;;;;;;7.40;5.55;;;22.50;99.90;;;;;;5028989;28;25110;-70
2022/08/14 01:07:18;;;;;;;6.45;5.60;;;22.70;99.90;;;;;;5032842;28;25049;-70
2022/08/14 01:09:46;;;;;;;8.32;5.53;;;22.70;99.90;;;;;;5013928;28;25128;-72
2022/08/14 01:12:11;;;;;;;12.93;5.72;;;22.60;99.90;;;;;;5019953;28;25052;-71
2022/08/14 01:14:37;;;;;;;6.40;5.75;;;22.70;99.90;;;;;;5031937;28;25128;-72
2022/08/14 01:17:03;;;;;;;5.97;5.05;;;22.70;99.90;;;;;;5023799;28;25162;-70
2022/08/14 01:22:14;;;;;;;9.05;5.78;;;22.70;99.90;;;;;;5036549;28;25096;-69
2022/08/14 01:24:40;;;;;;;8.23;6.05;;;22.60;99.90;;;;;;5030705;28;25076;-71
2022/08/14 01:27:06;;;;;;;6.50;5.68;;;22.50;99.90;;;;;;5022559;28;25060;-71
2022/08/14 01:29:36;;;;;;;10.25;5.85;;;22.40;99.90;;;;;;5029980;28;25081;-70
2022/08/14 01:32:03;;;;;;;6.30;5.50;;;22.40;99.90;;;;;;5025339;28;25065;-71
2022/08/14 01:34:35;;;;;;;11.48;6.10;;;22.30;99.90;;;;;;5027884;28;25045;-71
2022/08/14 01:37:07;;;;;;;10.07;5.55;;;22.20;99.90;;;;;;5036055;28;25057;-72
2022/08/14 01:39:32;;;;;;;8.90;5.97;;;22.30;99.90;;;;;;5020434;28;25188;-72
2022/08/14 01:41:59;;;;;;;6.97;5.75;;;22.30;99.90;;;;;;5028067;28;25095;-71
2022/08/14 01:44:28;;;;;;;7.30;5.32;;;22.40;99.90;;;;;;5026734;28;25059;-72
2022/08/14 01:46:57;;;;;;;7.78;5.65;;;22.40;99.90;;;;;;5018908;28;25055;-70
2022/08/14 01:49:24;;;;;;;6.90;6.13;;;22.30;99.90;;;;;;5017228;28;25112;-71
2022/08/14 01:51:55;;;;;;;8.25;5.63;;;22.20;99.90;;;;;;5021486;28;25070;-71
2022/08/14 01:54:22;;;;;;;7.10;6.38;;;22.30;99.90;;;;;;5025765;28;25062;-71
2022/08/14 01:56:55;;;;;;;8.57;6.30;;;22.20;99.90;;;;;;5024508;28;25066;-71
2022/08/14 01:59:20;;;;;;;;;;;22.40;99.90;;;;;;5027199;28;25062;-71
2022/08/14 02:01:50;;;;;;;8.20;5.38;;;22.40;99.90;;;;;;5031914;28;24103;-70
2022/08/14 02:04:16;;;;;;;6.45;5.80;;;22.40;99.90;;;;;;5026564;28;25075;-71
2022/08/14 02:06:42;;;;;;;7.45;5.75;;;22.30;99.90;;;;;;5027978;28;25155;-71
2022/08/14 02:09:08;;;;;;;8.38;6.55;;;22.20;99.90;;;;;;5046831;28;25060;-72
2022/08/14 02:11:35;;;;;;;7.32;6.13;;;22.20;99.90;;;;;;5047617;28;25097;-71
2022/08/14 02:14:04;;;;;;;7.50;5.90;;;22.10;99.90;;;;;;5047860;28;25102;-71
2022/08/14 02:16:35;;;;;;;7.32;6.28;;;22.10;99.90;;;;;;5042204;28;25132;-71
2022/08/14 02:19:03;;;;;;;9.98;5.78;;;22.10;99.90;;;;;;5024993;28;25076;-71
2022/08/14 02:21:31;;;;;;;8.80;5.93;;;22.10;99.90;;;;;;5024492;28;25050;-72
2022/08/14 02:24:00;;;;;;;7.43;6.70;;;22.10;99.90;;;;;;5022015;28;25066;-71
2022/08/14 02:26:31;;;;;;;11.77;6.50;;;22.10;99.90;;;;;;5028278;28;25049;-70
2022/08/14 02:29:06;;;;;;;8.30;6.35;;;22.00;99.90;;;;;;5026946;28;25111;-70
2022/08/14 02:31:39;;;;;;;7.78;6.10;;;22.00;99.90;;;;;;5029764;28;25100;-71
2022/08/14 02:34:09;;;;;;;;;;;22.00;99.90;;;;;;5024361;28;25159;-71
2022/08/14 02:36:36;;;;;;;10.18;5.47;;;22.00;99.90;;;;;;5030683;28;24064;-70
2022/08/14 02:39:04;;;;;;;9.20;6.85;;;22.00;99.90;;;;;;5029956;28;25060;-71
2022/08/14 02:41:34;;;;;;;9.75;6.40;;;22.00;99.90;;;;;;5032572;28;25053;-69
2022/08/14 02:44:01;;;;;;;8.25;6.20;;;21.90;99.90;;;;;;5022607;28;25074;-71
2022/08/14 02:46:27;;;;;;;10.45;6.88;;;21.90;99.90;;;;;;5036380;28;25071;-71
2022/08/14 02:48:56;;;;;;;9.35;6.82;;;21.90;99.90;;;;;;5031823;28;25121;-70
2022/08/14 02:51:22;;;;;;;7.60;6.90;;;21.90;99.90;;;;;;5031749;28;25113;-69
2022/08/14 02:53:47;;;;;;;12.82;6.68;;;21.80;99.90;;;;;;5023704;28;25063;-71
2022/08/14 02:56:15;;;;;;;8.30;7.40;;;21.70;99.90;;;;;;5022393;28;25056;-70
2022/08/14 02:58:46;;;;;;;9.00;6.85;;;21.70;99.90;;;;;;5019616;28;25125;-70
2022/08/14 03:01:14;;;;;;;11.55;7.43;;;21.60;99.90;;;;;;5019374;28;25066;-70
2022/08/14 03:03:41;;;;;;;14.05;6.97;;;21.50;99.90;;;;;;5025047;28;25062;-71
2022/08/14 03:06:08;;;;;;;7.82;7.03;;;21.50;99.90;;;;;;5024294;28;25141;-71
2022/08/14 03:08:37;;;;;;;9.27;6.82;;;21.40;99.90;;;;;;5020746;28;25062;-70
2022/08/14 03:11:08;;;;;;;12.48;7.10;;;21.40;99.90;;;;;;5027826;28;25092;-69
2022/08/14 03:13:35;;;;;;;9.48;6.97;;;21.40;99.90;;;;;;5035971;28;25068;-71
2022/08/14 03:16:06;;;;;;;7.68;6.93;;;21.40;99.90;;;;;;5043924;28;25121;-71
2022/08/14 03:18:32;;;;;;;7.03;6.43;;;21.40;99.90;;;;;;5048403;28;25070;-70
2022/08/14 03:21:01;;;;;;;10.05;7.90;;;21.50;99.90;;;;;;5040455;28;25077;-70
2022/08/14 03:23:26;;;;;;;9.18;7.53;;;21.30;99.90;;;;;;5053132;28;25077;-74
2022/08/14 03:25:52;;;;;;;8.75;7.78;;;21.40;99.90;;;;;;5043509;28;25125;-74
2022/08/14 03:28:18;;;;;;;8.55;7.18;;;21.40;99.90;;;;;;5046663;28;25146;-73
2022/08/14 03:30:44;;;;;;;10.43;7.03;;;21.30;99.90;;;;;;5041947;28;25065;-72
2022/08/14 03:33:14;;;;;;;8.18;7.38;;;21.30;99.90;;;;;;5033273;28;25118;-73
2022/08/14 03:35:41;;;;;;;8.32;7.13;;;21.20;99.90;;;;;;5037677;28;25056;-72
2022/08/14 03:38:11;;;;;;;9.35;7.63;;;21.20;99.90;;;;;;5026845;28;25122;-73
2022/08/14 03:40:38;;;;;;;11.30;7.43;;;21.10;99.90;;;;;;5038276;28;25063;-73
2022/08/14 03:43:08;;;;;;;10.65;8.02;;;21.10;99.90;;;;;;5041927;28;25094;-72
2022/08/14 03:45:39;;;;;;;11.52;7.50;;;21.00;99.90;;;;;;5040343;28;25073;-71
2022/08/14 03:48:19;;;;;;;10.55;7.75;;;21.00;99.90;;;;;;5041263;28;25068;-73
2022/08/14 03:50:51;;;;;;;10.52;7.40;;;21.10;99.90;;;;;;5036248;28;25070;-71
2022/08/14 03:53:18;;;;;;;;;;;21.10;99.90;;;;;;5033988;28;25064;-71
2022/08/14 03:55:45;;;;;;;9.02;7.60;;;21.00;99.90;;;;;;5040210;28;25157;-72
2022/08/14 03:58:11;;;;;;;10.63;8.57;;;21.00;99.90;;;;;;5028303;28;25121;-70
2022/08/14 04:00:39;;;;;;;8.85;7.78;;;20.90;99.90;;;;;;5028360;28;25130;-70
2022/08/14 04:03:08;;;;;;;8.35;7.50;;;20.90;99.90;;;;;;5033658;28;25064;-74
2022/08/14 04:05:41;;;;;;;8.75;7.82;;;20.90;99.90;;;;;;5024901;28;25086;-72
2022/08/14 04:08:08;;;;;;;13.77;9.18;;;20.80;99.90;;;;;;5034958;28;25110;-72
2022/08/14 04:10:33;;;;;;;13.25;8.35;;;20.80;99.90;;;;;;5033227;28;25052;-72
2022/08/14 04:13:04;;;;;;;12.10;8.43;;;20.80;99.90;;;;;;5034036;28;25132;-71
2022/08/14 04:15:31;;;;;;;9.10;8.05;;;20.80;99.90;;;;;;5031863;28;25056;-72
2022/08/14 04:18:11;;;;;;;10.23;8.23;;;20.80;99.90;;;;;;5026385;28;25133;-71
2022/08/14 04:20:40;;;;;;;11.60;8.13;;;20.80;99.90;;;;;;5034312;28;25116;-72
2022/08/14 04:23:09;;;;;;;11.57;8.50;;;20.60;99.90;;;;;;5030453;28;25075;-72
2022/08/14 04:25:36;;;;;;;9.07;7.97;;;20.60;99.90;;;;;;5020523;28;25066;-71
2022/08/14 04:28:04;;;;;;;10.43;9.15;;;20.60;99.90;;;;;;5023243;28;25056;-73
2022/08/14 04:30:38;;;;;;;10.50;8.57;;;20.60;99.90;;;;;;5020617;28;25089;-71
2022/08/14 04:33:06;;;;;;;14.95;9.00;;;20.60;99.90;;;;;;5025787;28;25056;-73
2022/08/14 04:35:36;;;;;;;12.27;8.18;;;20.60;99.90;;;;;;5015379;28;25120;-74
2022/08/14 04:43:44;;;;;;;13.82;9.15;;;20.50;99.90;;;;;;5020699;28;25046;-70
2022/08/14 04:46:13;;;;;;;11.27;9.23;;;20.50;99.90;;;;;;5015938;28;25076;-71
2022/08/14 04:48:39;;;;;;;11.70;9.38;;;20.50;99.90;;;;;;5019639;28;25074;-71
2022/08/14 04:51:08;;;;;;;11.65;9.45;;;20.50;99.90;;;;;;5026675;28;25132;-74
2022/08/14 04:53:36;;;;;;;10.45;9.43;;;20.50;99.90;;;;;;5020154;28;25063;-72
2022/08/14 04:56:04;;;;;;;11.85;9.65;;;20.50;99.90;;;;;;5024566;28;25095;-71
2022/08/14 04:58:31;;;;;;;11.05;8.98;;;20.60;99.90;;;;;;5016614;28;25144;-72
2022/08/14 05:00:57;;;;;;;11.93;10.57;;;20.60;99.90;;;;;;5025658;28;25067;-72
2022/08/14 05:03:28;;;;;;;10.82;9.48;;;20.60;99.90;;;;;;5030878;28;25127;-72
2022/08/14 05:06:04;;;;;;;13.18;9.75;;;20.50;99.90;;;;;;5034649;28;25056;-71
2022/08/14 05:08:31;;;;;;;10.57;8.82;;;20.50;99.90;;;;;;5045305;23;25069;-63
2022/08/14 05:10:58;;;;;;;13.60;10.05;;;20.50;99.90;;;;;;5008064;28;25083;-61
2022/08/14 05:13:26;;;;;;;15.32;9.45;;;20.60;99.90;;;;;;5003998;28;25062;-62
2022/08/14 05:15:53;;;;;;;13.65;10.05;;;20.60;99.90;;;;;;5002820;28;25174;-62
2022/08/14 05:18:24;;;;;;;13.27;9.77;;;20.70;99.90;;;;;;5011484;28;25064;-62
2022/08/14 05:20:53;;;;;;;14.93;10.30;;;20.60;99.90;;;;;;4999454;28;25075;-63
2022/08/14 05:23:22;;;;;;;10.60;9.15;;;20.70;99.90;;;;;;5010090;28;25138;-59
2022/08/14 05:25:50;;;;;;;13.20;10.38;;;20.70;99.90;;;;;;5001807;28;25091;-59
2022/08/14 05:28:24;;;;;;;12.60;9.48;;;20.70;99.90;;;;;;5001561;28;25100;-60
2022/08/14 05:30:59;;;;;;;15.13;10.80;;;20.70;99.90;;;;;;4997410;28;25071;-60
2022/08/14 05:33:27;;;;;;;13.85;10.50;;;20.70;99.90;;;;;;5002721;28;25107;-59
2022/08/14 05:36:01;;;;;;;13.95;10.57;;;20.60;99.90;;;;;;4999284;28;25074;-60
2022/08/14 05:38:32;;;;;;;13.35;10.18;;;20.70;99.90;;;;;;5000437;28;25044;-60
2022/08/14 05:41:02;;;;;;;13.90;10.52;;;20.80;99.90;;;;;;5009666;28;25087;-61
2022/08/14 05:43:29;;;;;;;12.93;10.38;;;20.80;99.90;;;;;;5010740;28;25067;-61
2022/08/14 05:45:56;;;;;;;12.75;11.45;;;20.90;99.90;;;;;;4995831;28;25064;-60
2022/08/14 05:48:23;;;;;;;14.35;11.27;;;20.90;99.90;;;;;;5004521;28;25054;-61
2022/08/14 05:50:48;;;;;;;12.27;10.80;;;21.00;99.90;;;;;;5004815;28;25074;-60
2022/08/14 05:53:14;;;;;;;15.13;11.13;;;21.00;99.90;;;;;;5004371;28;25126;-60
2022/08/14 05:55:39;;;;;;;12.55;10.27;;;21.00;99.90;;;;;;5004988;28;25161;-60
2022/08/14 05:58:06;;;;;;;15.57;12.02;;;21.10;99.90;;;;;;5005271;28;25116;-60
2022/08/14 06:00:37;;;;;;;13.75;12.02;;;21.10;99.90;;;;;;5004806;28;25068;-60
2022/08/14 06:03:06;;;;;;;11.93;10.60;;;21.10;99.90;;;;;;5002227;28;25083;-60
2022/08/14 06:05:32;;;;;;;12.32;10.73;;;21.30;99.90;;;;;;5004531;28;25158;-60
2022/08/14 06:07:59;;;;;;;15.45;11.75;;;21.40;99.90;;;;;;5008763;28;25099;-60
2022/08/14 06:10:28;;;;;;;12.95;11.45;;;21.40;99.90;;;;;;5007110;28;25054;-60
2022/08/14 06:13:00;;;;;;;13.18;11.73;;;21.40;99.90;;;;;;5007066;28;25082;-61
2022/08/14 06:15:26;;;;;;;16.15;11.85;;;21.40;99.90;;;;;;5005015;28;25075;-61
2022/08/14 06:17:55;;;;;;;18.98;11.10;;;21.40;99.90;;;;;;5007000;28;25066;-59
2022/08/14 06:20:21;;;;;;;13.20;11.50;;;21.40;99.90;;;;;;5007527;28;25052;-60
2022/08/14 06:22:47;;;;;;;13.05;10.60;;;21.50;99.90;;;;;;5003987;28;25076;-60
2022/08/14 06:25:14;;;;;;;12.02;10.88;;;21.60;99.90;;;;;;5001658;28;25069;-60
2022/08/14 06:27:43;;;;;;;13.80;10.90;;;21.60;99.90;;;;;;5004399;28;25127;-60
2022/08/14 06:30:18;;;;;;;15.20;10.98;;;21.60;99.90;;;;;;5007029;28;25079;-60
2022/08/14 06:32:44;;;;;;;13.63;11.93;;;21.70;99.90;;;;;;5012953;28;25137;-60
2022/08/14 06:35:13;;;;;;;13.65;10.93;;;22.00;99.90;;;;;;5009022;28;25058;-60
2022/08/14 06:37:50;;;;;;;13.50;11.27;;;22.10;99.90;;;;;;5005953;28;25062;-61
2022/08/14 06:40:27;;;;;;;13.40;10.38;;;22.30;99.90;;;;;;5012242;28;25058;-60
2022/08/14 06:42:57;;;;;;;14.27;10.10;;;22.40;99.90;;;;;;5022098;28;25055;-61
2022/08/14 06:45:23;;;;;;;15.10;10.77;;;22.50;99.90;;;;;;5005561;28;25142;-60
2022/08/14 06:47:48;;;;;;;13.55;10.30;;;22.60;99.90;;;;;;5019618;28;25104;-61
2022/08/14 06:50:16;;;;;;;12.20;10.85;;;22.70;99.90;;;;;;5008607;28;25088;-61
2022/08/14 06:52:42;;;;;;;14.63;10.75;;;22.70;99.90;;;;;;5008041;28;25147;-61
2022/08/14 06:55:11;;;;;;;13.85;11.68;;;22.60;99.90;;;;;;5004242;28;25072;-61
2022/08/14 06:57:39;;;;;;;13.15;10.85;;;22.70;99.90;;;;;;5000400;28;25057;-61
2022/08/14 07:00:13;;;;;;;13.20;10.30;;;22.80;99.90;;;;;;5005496;28;25142;-62
2022/08/14 07:08:20;;;;;;;12.68;11.05;;;23.00;99.90;;;;;;5003031;28;25052;-61
2022/08/14 07:10:50;;;;;;;12.05;10.05;;;23.20;99.90;;;;;;5002736;28;25118;-62
2022/08/14 07:13:19;;;;;;;11.07;9.88;;;23.30;99.90;;;;;;4994580;28;25090;-61
2022/08/14 07:15:49;;;;;;;13.23;9.95;;;23.30;99.90;;;;;;4997895;28;25116;-61
2022/08/14 07:18:25;;;;;;;20.17;11.02;;;23.50;99.90;;;;;;4997802;28;25065;-60
2022/08/14 07:20:52;;;;;;;16.20;10.88;;;23.60;99.90;;;;;;4995673;28;25074;-61
2022/08/14 07:23:19;;;;;;;13.13;9.70;;;23.70;99.90;;;;;;5006467;28;25087;-62
2022/08/14 07:25:45;;;;;;;12.70;10.02;;;23.90;99.90;;;;;;5000329;28;25071;-61
2022/08/14 07:28:17;;;;;;;11.60;10.18;;;24.10;99.90;;;;;;4999481;28;25055;-61
2022/08/14 07:30:43;;;;;;;12.70;9.48;;;24.30;99.90;;;;;;5001989;28;25121;-61
2022/08/14 07:33:10;;;;;;;15.85;10.38;;;24.40;99.90;;;;;;5002473;28;25064;-61
2022/08/14 07:35:37;;;;;;;11.07;9.98;;;24.40;99.90;;;;;;4994300;28;25090;-62
2022/08/14 07:38:03;;;;;;;12.30;9.63;;;24.60;99.90;;;;;;4997007;28;25073;-59
2022/08/14 07:40:29;;;;;;;15.05;10.07;;;24.90;99.90;;;;;;4996009;28;25065;-62
2022/08/14 07:42:55;;;;;;;11.95;9.55;;;25.40;99.90;;;;;;4999427;28;25158;-63
2022/08/14 07:45:20;;;;;;;14.13;10.30;;;26.00;99.90;;;;;;4995503;28;25094;-60
2022/08/14 07:47:46;;;;;;;12.73;10.20;;;26.00;99.90;;;;;;4997845;28;25127;-62
2022/08/14 07:50:14;;;;;;;12.93;10.02;;;26.10;99.90;;;;;;4998063;28;25092;-61
2022/08/14 07:52:45;;;;;;;13.02;10.02;;;26.20;99.90;;;;;;4992900;28;25079;-63
2022/08/14 07:55:12;;;;;;;15.70;10.57;;;26.10;99.90;;;;;;4991283;28;25057;-62
2022/08/14 07:57:39;;;;;;;11.57;10.30;;;26.30;99.90;;;;;;5003188;28;25060;-62
2022/08/14 08:00:10;;;;;;;11.30;10.23;;;26.10;99.90;;;;;;5012654;28;25140;-62
2022/08/14 08:02:41;;;;;;;15.00;9.77;;;26.50;99.90;;;;;;5011189;28;25072;-62
2022/08/14 08:05:08;;;;;;;12.53;9.47;;;27.00;99.90;;;;;;5000575;28;25084;-61
2022/08/14 08:07:34;;;;;;;12.23;10.93;;;26.70;99.90;;;;;;5003676;28;25080;-61
2022/08/14 08:10:29;;;;;;;17.27;10.27;;;26.80;99.90;;;;;;4982925;28;25048;-61
2022/08/14 08:12:53;;;;;;;12.30;10.85;;;26.30;99.90;;;;;;5001793;28;25071;-60
2022/08/14 08:15:19;;;;;;;16.00;11.70;;;25.60;99.90;;;;;;5001350;28;25049;-61
2022/08/14 08:17:45;;;;;;;15.55;10.55;;;25.50;99.90;;;;;;4999410;28;25145;-61
2022/08/14 08:20:24;;;;;;;14.68;11.80;;;25.60;99.90;;;;;;5000630;28;25161;-62
2022/08/14 08:22:50;;;;;;;12.27;10.98;;;25.60;99.90;;;;;;4998573;28;25098;-61
2022/08/14 08:25:17;;;;;;;12.90;11.60;;;25.80;99.90;;;;;;4993476;28;25104;-60
2022/08/14 08:28:09;;;;;;;13.50;10.27;;;26.10;99.90;;;;;;4994645;28;25101;-62
2022/08/14 08:30:37;;;;;;;13.45;11.80;;;26.20;99.90;;;;;;4992200;28;25097;-61
2022/08/14 08:33:04;;;;;;;10.70;9.60;;;26.20;99.90;;;;;;4989588;28;25124;-62
2022/08/14 08:35:34;;;;;;;12.45;10.35;;;26.60;99.90;;;;;;4999801;28;25061;-61
2022/08/14 08:38:06;;;;;;;15.43;9.82;;;26.90;99.90;;;;;;5002539;28;25157;-62
2022/08/14 08:40:34;;;;;;;13.13;9.68;;;26.60;99.90;;;;;;5009825;28;25141;-62
2022/08/14 08:43:02;;;;;;;14.30;9.93;;;26.50;99.90;;;;;;5001213;28;25063;-60
2022/08/14 08:45:28;;;;;;;11.57;9.50;;;27.00;99.90;;;;;;5005209;28;25157;-59
2022/08/14 08:47:54;;;;;;;13.02;9.70;;;27.30;99.90;;;;;;4997822;28;25056;-62
2022/08/14 08:50:32;;;;;;;10.60;8.82;;;27.50;99.90;;;;;;5000120;28;25052;-62
2022/08/14 08:53:00;;;;;;;10.20;9.15;;;28.20;99.90;;;;;;4998474;28;25076;-62
2022/08/14 08:55:34;;;;;;;14.38;9.85;;;28.70;99.00;;;;;;5003764;28;25066;-62
2022/08/14 08:58:03;;;;;;;12.40;9.85;;;28.10;93.50;;;;;;5004845;28;25108;-62
2022/08/14 09:00:33;;;;;;;9.52;8.63;;;27.60;99.30;;;;;;4996876;28;25517;-62
2022/08/14 09:03:17;;;;;;;10.07;8.95;;;27.60;98.00;;;;;;5002914;28;25153;-61
2022/08/14 09:05:54;;;;;;;16.40;8.80;;;27.90;99.30;;;;;;5004110;28;25086;-62
2022/08/14 09:08:25;;;;;;;8.95;8.05;;;28.40;97.00;;;;;;5003315;28;25162;-62
2022/08/14 09:10:52;;;;;;;9.20;8.10;;;28.50;95.80;;;;;;5013240;28;25100;-61
2022/08/14 09:13:19;;;;;;;12.23;8.23;;;28.50;91.90;;;;;;5003936;28;25076;-63
2022/08/14 09:15:46;;;;;;;8.85;7.53;;;27.90;91.50;;;;;;5004034;28;25161;-61
2022/08/14 09:18:14;;;;;;;14.07;8.57;;;28.10;96.60;;;;;;5000650;28;25175;-61
2022/08/14 09:20:42;;;;;;;11.48;8.50;;;28.20;92.10;;;;;;4994802;28;25171;-61
2022/08/14 09:23:10;;;;;;;10.23;8.32;;;27.80;96.20;;;;;;5004983;28;25059;-61
2022/08/14 09:25:36;;;;;;;16.63;9.27;;;27.70;95.60;;;;;;4999482;28;25115;-61
2022/08/14 09:28:03;;;;;;;10.75;9.30;;;27.60;98.10;;;;;;5004711;28;25105;-62
2022/08/14 09:30:32;;;;;;;9.88;8.77;;;27.70;99.90;;;;;;4994849;28;25096;-64
2022/08/14 09:33:01;;;;;;;10.88;8.35;;;27.90;98.30;;;;;;5000976;28;25078;-62
2022/08/14 09:35:42;;;;;;;10.00;7.40;;;28.10;96.60;;;;;;5002979;28;25072;-62
2022/08/14 09:38:39;;;;;;;8.63;7.82;;;28.20;94.30;;;;;;5006882;28;25072;-61
2022/08/14 09:41:28;;;;;;;8.27;7.47;;;28.30;96.10;;;;;;4996905;28;25134;-63
2022/08/14 09:43:59;;;;;;;12.02;7.15;;;28.80;94.20;;;;;;5000342;28;25070;-61
2022/08/14 09:46:26;;;;;;;10.88;7.57;;;29.40;90.90;;;;;;5000761;28;25078;-61
2022/08/14 09:49:04;;;;;;;9.90;7.30;;;29.60;78.70;;;;;;4996679;28;25103;-62
2022/08/14 09:51:31;;;;;;;8.77;7.13;;;29.50;77.00;;;;;;4998157;28;25078;-62
2022/08/14 09:54:05;;;;;;;8.02;7.22;;;29.80;77.40;;;;;;5001357;28;25114;-61
2022/08/14 09:56:44;;;;;;;12.52;6.90;;;29.40;69.20;;;;;;5015689;28;25052;-63
2022/08/14 09:59:13;;;;;;;9.27;6.40;;;29.20;81.50;;;;;;5010129;28;25092;-63
2022/08/14 10:01:39;;;;;;;6.93;6.32;;;29.80;78.00;;;;;;5008756;28;25159;-61
2022/08/14 10:04:18;;;;;;;7.68;6.43;;;30.00;61.30;;;;;;5008161;28;25091;-63
2022/08/14 10:06:44;;;;;;;7.30;5.43;;;30.50;43.10;;;;;;5009113;28;25063;-62
2022/08/14 10:09:10;;;;;;;7.38;5.40;;;31.00;22.30;;;;;;5008290;28;25054;-62
2022/08/14 10:11:38;;;;;;;5.60;5.10;;;31.10;21.30;;;;;;5010564;28;25118;-62
2022/08/14 10:14:23;;;;;;;9.10;4.40;;;31.10;4.40;;;;;;5008217;28;25168;-62
2022/08/14 10:16:53;;;;;;;8.27;5.95;;;31.80;1.00;;;;;;5010766;28;25056;-62
2022/08/14 10:19:27;;;;;;;13.25;6.28;;;31.40;1.00;;;;;;5004194;28;25051;-62
2022/08/14 10:22:04;;;;;;;7.95;7.15;;;31.20;16.60;;;;;;5008726;28;25069;-62
2022/08/14 10:24:45;;;;;;;6.35;5.72;;;30.30;43.40;;;;;;5008127;28;25145;-61
2022/08/14 10:27:22;;;;;;;7.75;6.88;;;30.40;54.80;;;;;;5005349;28;25082;-61
2022/08/14 10:29:50;;;;;;;9.77;7.20;;;30.80;46.10;;;;;;5006624;28;25084;-62
2022/08/14 10:32:17;;;;;;;7.03;6.35;;;31.00;40.10;;;;;;5005858;28;24864;-61
2022/08/14 10:34:42;;;;;;;7.38;6.10;;;30.80;45.00;;;;;;5006510;28;25131;-62
2022/08/14 10:37:10;;;;;;;11.45;6.60;;;31.40;19.10;;;;;;5005024;28;25121;-63
2022/08/14 10:39:37;;;;;;;6.95;6.20;;;31.00;20.80;;;;;;5004459;28;25062;-61
2022/08/14 10:42:04;;;;;;;8.55;5.95;;;31.30;17.00;;;;;;5010056;28;25126;-61
2022/08/14 10:44:40;;;;;;;6.72;6.13;;;31.40;7.70;;;;;;5001492;28;25083;-61
2022/08/14 10:47:10;;;;;;;12.95;6.75;;;31.70;1.00;;;;;;5009814;28;25136;-62
2022/08/14 10:49:38;;;;;;;7.15;5.63;;;31.80;1.00;;;;;;5009174;28;25082;-61
2022/08/14 10:52:07;;;;;;;9.85;6.65;;;32.40;1.00;;;;;;5007208;28;25064;-62
2022/08/14 10:54:39;;;;;;;6.88;6.28;;;32.40;1.00;;;;;;5004663;28;25087;-61
2022/08/14 10:57:14;;;;;;;9.77;6.18;;;31.30;1.00;;;;;;5007154;28;25066;-61
2022/08/14 10:59:49;;;;;;;8.23;5.78;;;31.60;2.40;;;;;;5004977;28;25082;-62
2022/08/14 11:02:20;;;;;;;11.15;6.47;;;31.70;1.00;;;;;;5008643;28;25050;-62
2022/08/14 11:05:00;;;;;;;6.35;5.70;;;31.70;1.00;;;;;;5005884;28;25099;-64
2022/08/14 11:07:27;;;;;;;9.60;5.75;;;31.30;1.00;;;;;;5010076;28;25074;-63
2022/08/14 11:09:58;;;;;;;6.75;5.57;;;31.30;1.00;;;;;;5006178;28;25064;-62
2022/08/14 11:12:25;;;;;;;5.72;5.03;;;31.10;1.00;;;;;;5008730;28;25106;-62
2022/08/14 11:14:58;;;;;;;7.80;4.85;;;31.10;1.00;;;;;;5004046;28;25056;-62
2022/08/14 11:17:25;;;;;;;13.07;5.40;;;31.30;1.00;;;;;;5005381;28;25042;-62
2022/08/14 11:19:57;;;;;;;6.00;4.65;;;31.40;1.00;;;;;;5007963;28;25059;-63
2022/08/14 11:22:26;;;;;;;5.25;4.72;;;31.50;1.00;;;;;;5005781;28;25062;-63
2022/08/14 11:24:55;;;;;;;5.60;5.10;;;31.80;1.00;;;;;;5002014;28;25092;-67
2022/08/14 11:27:24;;;;;;;6.90;4.78;;;31.40;1.00;;;;;;5004295;28;25095;-66
2022/08/14 11:29:49;;;;;;;8.52;4.82;;;31.40;1.00;;;;;;5004469;28;25091;-64
2022/08/14 11:32:18;;;;;;;8.30;5.50;;;31.90;1.00;;;;;;5004750;28;25090;-66
2022/08/14 11:34:43;;;;;;;5.13;4.72;;;31.80;1.00;;;;;;5000227;28;25070;-63
2022/08/14 11:37:10;;;;;;;8.52;5.13;;;31.60;1.00;;;;;;5004795;28;25085;-64
2022/08/14 11:39:36;;;;;;;6.97;5.68;;;31.80;1.00;;;;;;5005470;28;25057;-65
2022/08/14 11:42:06;;;;;;;5.70;4.93;;;31.90;1.00;;;;;;5004163;28;25130;-64
2022/08/14 11:44:32;;;;;;;7.30;5.05;;;31.90;1.00;;;;;;5015210;28;25080;-66
2022/08/14 11:46:57;;;;;;;8.32;5.18;;;32.40;1.00;;;;;;5009223;28;25083;-65
2022/08/14 11:49:27;;;;;;;6.43;4.85;;;32.90;1.00;;;;;;5005275;28;25065;-66
2022/08/14 11:51:54;;;;;;;11.55;5.40;;;32.30;1.00;;;;;;5003675;28;25097;-65
2022/08/14 11:54:19;;;;;;;8.50;4.50;;;32.80;1.00;;;;;;5000658;28;25150;-67
2022/08/14 11:56:48;;;;;;;4.32;3.83;;;33.20;1.00;;;;;;5000343;28;25118;-64
2022/08/14 11:59:16;;;;;;;5.75;4.28;;;32.80;99.90;;;;;;5000082;28;25130;-62
2022/08/14 12:01:45;;;;;;;5.88;4.53;;;32.90;99.90;;;;;;5002182;28;25055;-63
2022/08/14 12:04:18;;;;;;;11.40;4.50;;;33.00;99.90;;;;;;5012182;28;25123;-64
2022/08/14 12:06:49;;;;;;;5.47;3.90;;;33.50;99.90;;;;;;5003158;28;25180;-64
2022/08/14 12:09:27;;;;;;;4.60;4.20;;;33.50;99.90;;;;;;5002901;28;25064;-66
2022/08/14 12:11:54;;;;;;;10.43;4.35;;;33.80;99.90;;;;;;5005145;28;25114;-64
2022/08/14 12:14:21;;;;;;;4.78;4.38;;;33.70;99.90;;;;;;5004098;28;25083;-66
2022/08/14 12:16:57;;;;;;;3.80;3.47;;;34.00;99.90;;;;;;5004999;28;25097;-67
2022/08/14 12:19:24;;;;;;;7.57;3.78;;;33.80;99.90;;;;;;5005014;28;25177;-65
2022/08/14 12:21:50;;;;;;;8.05;4.47;;;34.10;99.90;;;;;;5005285;28;25072;-68
2022/08/14 12:24:15;;;;;;;4.60;4.22;;;34.20;99.90;;;;;;5004803;28;25093;-65
2022/08/14 12:26:41;;;;;;;7.95;4.57;;;34.60;99.90;;;;;;5004418;28;25093;-66
2022/08/14 12:29:13;;;;;;;4.97;4.53;;;34.10;99.90;;;;;;5001634;28;25061;-65
2022/08/14 12:31:45;;;;;;;7.07;4.10;;;34.20;99.90;;;;;;5012950;28;25056;-65
2022/08/14 12:34:14;;;;;;;7.20;4.30;;;34.50;99.90;;;;;;5000176;28;25089;-66
2022/08/14 12:36:39;;;;;;;6.55;4.05;;;34.60;99.90;;;;;;5003929;28;25059;-68
2022/08/14 12:39:32;;;;;;;5.82;4.18;;;33.80;99.90;;;;;;4998735;28;25075;-66
2022/08/14 12:42:05;;;;;;;7.30;4.45;;;34.40;99.90;;;;;;5003410;28;25066;-66
2022/08/14 12:44:31;;;;;;;6.85;4.22;;;33.80;99.90;;;;;;4999848;28;25059;-64
2022/08/14 12:47:06;;;;;;;5.05;4.60;;;33.50;99.90;;;;;;5005203;28;25043;-65
2022/08/14 12:49:33;;;;;;;6.90;4.38;;;33.30;99.90;;;;;;5007168;28;25132;-67
2022/08/14 12:52:00;;;;;;;5.35;4.20;;;33.60;99.90;;;;;;5013434;28;25131;-65
2022/08/14 12:54:26;;;;;;;5.85;3.60;;;34.10;99.90;;;;;;5006135;28;25101;-66
2022/08/14 12:57:05;;;;;;;6.18;3.55;;;33.40;99.90;;;;;;5002754;28;25142;-66
2022/08/14 12:59:34;;;;;;;5.85;3.58;;;33.00;99.90;;;;;;5004292;28;25071;-66
2022/08/14 13:02:01;;;;;;;9.07;3.53;;;32.70;99.90;;;;;;5004571;28;25078;-65
2022/08/14 13:04:30;;;;;;;4.68;3.40;;;32.60;99.90;;;;;;5001718;28;25086;-69